sensor_id;sensor_type;location;lat;lon;timestamp;temperature;humidity
33271;DHT22;53180;51.344;6.152;2022-12-18T00:00:08;-4.60;88.10
33271;DHT22;53180;51.344;6.152;2022-12-18T00:02:37;-4.70;88.00
33271;DHT22;53180;51.344;6.152;2022-12-18T00:05:06;-4.70;88.10
33271;DHT22;53180;51.344;6.152;2022-12-18T00:07:35;-4.70;88.10
33271;DHT22;53180;51.344;6.152;2022-12-18T00:10:05;-4.70;88.10
33271;DHT22;53180;51.344;6.152;2022-12-18T00:12:34;-4.70;88.10
33271;DHT22;53180;51.344;6.152;2022-12-18T00:15:04;-4.70;88.10
33271;DHT22;53180;51.344;6.152;2022-12-18T00:17:33;-4.70;88.10
33271;DHT22;53180;51.344;6.152;2022-12-18T00:20:02;-4.60;88.20
33271;DHT22;53180;51.344;6.152;2022-12-18T00:22:30;-4.60;88.20
33271;DHT22;53180;51.344;6.152;2022-12-18T00:24:58;-4.60;88.10
33271;DHT22;53180;51.344;6.152;2022-12-18T00:27:27;-4.60;87.90
33271;DHT22;53180;51.344;6.152;2022-12-18T00:29:55;-4.50;88.00
33271;DHT22;53180;51.344;6.152;2022-12-18T00:32:24;-4.50;87.80
33271;DHT22;53180;51.344;6.152;2022-12-18T00:34:53;-4.60;87.60
33271;DHT22;53180;51.344;6.152;2022-12-18T00:37:21;-4.70;87.50
33271;DHT22;53180;51.344;6.152;2022-12-18T00:39:49;-4.60;87.70
33271;DHT22;53180;51.344;6.152;2022-12-18T00:42:17;-4.60;87.60
33271;DHT22;53180;51.344;6.152;2022-12-18T00:45:03;-4.70;87.40
33271;DHT22;53180;51.344;6.152;2022-12-18T00:47:40;-4.70;87.50
33271;DHT22;53180;51.344;6.152;2022-12-18T00:50:09;-4.70;87.60
33271;DHT22;53180;51.344;6.152;2022-12-18T00:52:37;-4.70;87.50
33271;DHT22;53180;51.344;6.152;2022-12-18T00:55:06;-4.70;87.60
33271;DHT22;53180;51.344;6.152;2022-12-18T00:57:35;-4.70;87.40
33271;DHT22;53180;51.344;6.152;2022-12-18T01:00:05;-4.70;87.20
33271;DHT22;53180;51.344;6.152;2022-12-18T01:02:35;-4.70;87.30
33271;DHT22;53180;51.344;6.152;2022-12-18T01:05:06;-4.70;87.30
33271;DHT22;53180;51.344;6.152;2022-12-18T01:07:35;-4.70;87.30
33271;DHT22;53180;51.344;6.152;2022-12-18T01:10:05;-4.70;87.10
33271;DHT22;53180;51.344;6.152;2022-12-18T01:12:34;-4.80;87.10
33271;DHT22;53180;51.344;6.152;2022-12-18T01:15:03;-4.80;86.90
33271;DHT22;53180;51.344;6.152;2022-12-18T01:17:32;-4.80;87.00
33271;DHT22;53180;51.344;6.152;2022-12-18T01:20:01;-4.80;87.00
33271;DHT22;53180;51.344;6.152;2022-12-18T01:22:31;-4.80;87.00
33271;DHT22;53180;51.344;6.152;2022-12-18T01:24:59;-4.80;87.10
33271;DHT22;53180;51.344;6.152;2022-12-18T01:27:27;-4.80;86.90
33271;DHT22;53180;51.344;6.152;2022-12-18T01:29:56;-4.80;87.00
33271;DHT22;53180;51.344;6.152;2022-12-18T01:32:24;-4.80;86.70
33271;DHT22;53180;51.344;6.152;2022-12-18T01:34:52;-4.90;86.70
33271;DHT22;53180;51.344;6.152;2022-12-18T01:37:20;-4.90;86.90
33271;DHT22;53180;51.344;6.152;2022-12-18T01:39:50;-4.90;86.80
33271;DHT22;53180;51.344;6.152;2022-12-18T01:42:21;-4.90;86.70
33271;DHT22;53180;51.344;6.152;2022-12-18T01:44:59;-4.90;86.70
33271;DHT22;53180;51.344;6.152;2022-12-18T01:47:36;-4.90;86.70
33271;DHT22;53180;51.344;6.152;2022-12-18T01:50:09;-4.90;86.70
33271;DHT22;53180;51.344;6.152;2022-12-18T01:52:40;-4.90;86.90
33271;DHT22;53180;51.344;6.152;2022-12-18T01:55:12;-4.80;86.90
33271;DHT22;53180;51.344;6.152;2022-12-18T01:57:41;-4.90;86.60
33271;DHT22;53180;51.344;6.152;2022-12-18T02:00:12;-4.90;86.70
33271;DHT22;53180;51.344;6.152;2022-12-18T02:02:44;-5.00;86.40
33271;DHT22;53180;51.344;6.152;2022-12-18T02:05:17;-4.90;86.60
33271;DHT22;53180;51.344;6.152;2022-12-18T02:07:58;-4.90;86.60
33271;DHT22;53180;51.344;6.152;2022-12-18T02:10:42;-5.00;86.50
33271;DHT22;53180;51.344;6.152;2022-12-18T02:13:20;-4.90;86.40
33271;DHT22;53180;51.344;6.152;2022-12-18T02:15:58;-5.00;86.30
33271;DHT22;53180;51.344;6.152;2022-12-18T02:18:34;-5.00;86.50
33271;DHT22;53180;51.344;6.152;2022-12-18T02:21:11;-5.00;86.80
33271;DHT22;53180;51.344;6.152;2022-12-18T02:23:48;-5.00;86.50
33271;DHT22;53180;51.344;6.152;2022-12-18T02:26:25;-5.00;86.50
33271;DHT22;53180;51.344;6.152;2022-12-18T02:28:58;-5.10;86.50
33271;DHT22;53180;51.344;6.152;2022-12-18T02:31:33;-5.00;86.50
33271;DHT22;53180;51.344;6.152;2022-12-18T02:34:06;-5.10;86.50
33271;DHT22;53180;51.344;6.152;2022-12-18T02:36:38;-5.10;86.60
33271;DHT22;53180;51.344;6.152;2022-12-18T02:39:10;-5.10;86.60
33271;DHT22;53180;51.344;6.152;2022-12-18T02:41:41;-5.10;86.70
33271;DHT22;53180;51.344;6.152;2022-12-18T02:44:11;-5.00;86.70
33271;DHT22;53180;51.344;6.152;2022-12-18T02:46:42;-5.00;86.50
33271;DHT22;53180;51.344;6.152;2022-12-18T02:49:21;-5.10;86.30
33271;DHT22;53180;51.344;6.152;2022-12-18T02:51:58;-5.10;86.40
33271;DHT22;53180;51.344;6.152;2022-12-18T02:54:39;-5.10;86.50
33271;DHT22;53180;51.344;6.152;2022-12-18T02:57:24;-5.10;86.40
33271;DHT22;53180;51.344;6.152;2022-12-18T03:00:02;-5.20;86.40
33271;DHT22;53180;51.344;6.152;2022-12-18T03:02:38;-5.20;86.40
33271;DHT22;53180;51.344;6.152;2022-12-18T03:05:13;-5.20;86.40
33271;DHT22;53180;51.344;6.152;2022-12-18T03:07:47;-5.20;86.50
33271;DHT22;53180;51.344;6.152;2022-12-18T03:10:21;-5.20;86.50
33271;DHT22;53180;51.344;6.152;2022-12-18T03:12:57;-5.20;86.60
33271;DHT22;53180;51.344;6.152;2022-12-18T03:15:30;-5.10;86.50
33271;DHT22;53180;51.344;6.152;2022-12-18T03:18:05;-5.20;86.40
33271;DHT22;53180;51.344;6.152;2022-12-18T03:20:37;-5.10;86.40
33271;DHT22;53180;51.344;6.152;2022-12-18T03:23:12;-5.10;86.40
33271;DHT22;53180;51.344;6.152;2022-12-18T03:25:43;-5.10;86.40
33271;DHT22;53180;51.344;6.152;2022-12-18T03:28:16;-5.10;86.40
33271;DHT22;53180;51.344;6.152;2022-12-18T03:30:52;-5.10;86.40
33271;DHT22;53180;51.344;6.152;2022-12-18T03:33:26;-5.10;86.30
33271;DHT22;53180;51.344;6.152;2022-12-18T03:35:56;-5.10;86.40
33271;DHT22;53180;51.344;6.152;2022-12-18T03:38:24;-5.10;86.50
33271;DHT22;53180;51.344;6.152;2022-12-18T03:41:02;-5.10;86.50
33271;DHT22;53180;51.344;6.152;2022-12-18T03:43:44;-5.10;86.40
33271;DHT22;53180;51.344;6.152;2022-12-18T03:46:24;-5.10;86.40
33271;DHT22;53180;51.344;6.152;2022-12-18T03:48:59;-5.20;86.60
33271;DHT22;53180;51.344;6.152;2022-12-18T03:51:37;-5.10;86.70
33271;DHT22;53180;51.344;6.152;2022-12-18T03:54:09;-5.10;86.60
33271;DHT22;53180;51.344;6.152;2022-12-18T03:56:40;-5.00;86.60
33271;DHT22;53180;51.344;6.152;2022-12-18T03:59:19;-5.00;86.50
33271;DHT22;53180;51.344;6.152;2022-12-18T04:01:49;-5.00;86.40
33271;DHT22;53180;51.344;6.152;2022-12-18T04:04:20;-5.00;86.50
33271;DHT22;53180;51.344;6.152;2022-12-18T04:06:50;-5.00;86.50
33271;DHT22;53180;51.344;6.152;2022-12-18T04:09:19;-5.00;86.50
33271;DHT22;53180;51.344;6.152;2022-12-18T04:11:48;-5.00;86.50
33271;DHT22;53180;51.344;6.152;2022-12-18T04:14:18;-4.90;86.40
33271;DHT22;53180;51.344;6.152;2022-12-18T04:16:46;-4.90;86.30
33271;DHT22;53180;51.344;6.152;2022-12-18T04:19:15;-4.90;86.30
33271;DHT22;53180;51.344;6.152;2022-12-18T04:21:43;-4.90;86.20
33271;DHT22;53180;51.344;6.152;2022-12-18T04:24:11;-4.90;86.20
33271;DHT22;53180;51.344;6.152;2022-12-18T04:26:39;-4.90;86.20
33271;DHT22;53180;51.344;6.152;2022-12-18T04:29:07;-4.80;86.10
33271;DHT22;53180;51.344;6.152;2022-12-18T04:31:37;-4.80;86.10
33271;DHT22;53180;51.344;6.152;2022-12-18T04:34:05;-4.80;86.00
33271;DHT22;53180;51.344;6.152;2022-12-18T04:36:33;-4.80;86.20
33271;DHT22;53180;51.344;6.152;2022-12-18T04:39:02;-4.80;86.10
33271;DHT22;53180;51.344;6.152;2022-12-18T04:41:30;-4.80;86.10
33271;DHT22;53180;51.344;6.152;2022-12-18T04:43:58;-4.80;86.10
33271;DHT22;53180;51.344;6.152;2022-12-18T04:46:27;-4.80;86.10
33271;DHT22;53180;51.344;6.152;2022-12-18T04:48:56;-4.70;86.00
33271;DHT22;53180;51.344;6.152;2022-12-18T04:51:25;-4.70;86.10
33271;DHT22;53180;51.344;6.152;2022-12-18T04:53:53;-4.70;86.00
33271;DHT22;53180;51.344;6.152;2022-12-18T04:56:23;-4.70;85.90
33271;DHT22;53180;51.344;6.152;2022-12-18T04:58:51;-4.70;85.90
33271;DHT22;53180;51.344;6.152;2022-12-18T05:01:19;-4.70;85.80
33271;DHT22;53180;51.344;6.152;2022-12-18T05:03:48;-4.70;85.80
33271;DHT22;53180;51.344;6.152;2022-12-18T05:06:17;-4.70;85.90
33271;DHT22;53180;51.344;6.152;2022-12-18T05:08:46;-4.70;85.90
33271;DHT22;53180;51.344;6.152;2022-12-18T05:11:14;-4.60;85.80
33271;DHT22;53180;51.344;6.152;2022-12-18T05:13:43;-4.60;85.80
33271;DHT22;53180;51.344;6.152;2022-12-18T05:16:13;-4.60;85.80
33271;DHT22;53180;51.344;6.152;2022-12-18T05:18:42;-4.50;85.70
33271;DHT22;53180;51.344;6.152;2022-12-18T05:21:10;-4.60;85.70
33271;DHT22;53180;51.344;6.152;2022-12-18T05:23:39;-4.60;85.70
33271;DHT22;53180;51.344;6.152;2022-12-18T05:26:09;-4.60;85.70
33271;DHT22;53180;51.344;6.152;2022-12-18T05:28:43;-4.60;85.70
33271;DHT22;53180;51.344;6.152;2022-12-18T05:31:11;-4.60;85.70
33271;DHT22;53180;51.344;6.152;2022-12-18T05:33:40;-4.60;85.60
33271;DHT22;53180;51.344;6.152;2022-12-18T05:36:09;-4.60;85.70
33271;DHT22;53180;51.344;6.152;2022-12-18T05:38:40;-4.60;85.70
33271;DHT22;53180;51.344;6.152;2022-12-18T05:41:09;-4.60;85.70
33271;DHT22;53180;51.344;6.152;2022-12-18T05:43:38;-4.60;85.70
33271;DHT22;53180;51.344;6.152;2022-12-18T05:46:11;-4.60;85.70
33271;DHT22;53180;51.344;6.152;2022-12-18T05:48:41;-4.50;85.70
33271;DHT22;53180;51.344;6.152;2022-12-18T05:51:11;-4.50;85.60
33271;DHT22;53180;51.344;6.152;2022-12-18T05:53:42;-4.50;85.60
33271;DHT22;53180;51.344;6.152;2022-12-18T05:56:13;-4.50;85.60
33271;DHT22;53180;51.344;6.152;2022-12-18T05:58:52;-4.50;85.50
33271;DHT22;53180;51.344;6.152;2022-12-18T06:01:22;-4.50;85.50
33271;DHT22;53180;51.344;6.152;2022-12-18T06:03:53;-4.40;85.50
33271;DHT22;53180;51.344;6.152;2022-12-18T06:06:22;-4.40;85.40
33271;DHT22;53180;51.344;6.152;2022-12-18T06:08:54;-4.40;85.40
33271;DHT22;53180;51.344;6.152;2022-12-18T06:11:25;-4.40;85.40
33271;DHT22;53180;51.344;6.152;2022-12-18T06:13:55;-4.40;85.30
33271;DHT22;53180;51.344;6.152;2022-12-18T06:16:26;-4.30;85.30
33271;DHT22;53180;51.344;6.152;2022-12-18T06:18:56;-4.30;85.30
33271;DHT22;53180;51.344;6.152;2022-12-18T06:21:25;-4.30;85.30
33271;DHT22;53180;51.344;6.152;2022-12-18T06:23:55;-4.30;85.20
33271;DHT22;53180;51.344;6.152;2022-12-18T06:26:24;-4.30;85.20
33271;DHT22;53180;51.344;6.152;2022-12-18T06:28:54;-4.40;85.30
33271;DHT22;53180;51.344;6.152;2022-12-18T06:31:23;-4.30;85.30
33271;DHT22;53180;51.344;6.152;2022-12-18T06:33:52;-4.30;85.20
33271;DHT22;53180;51.344;6.152;2022-12-18T06:36:20;-4.30;85.10
33271;DHT22;53180;51.344;6.152;2022-12-18T06:38:48;-4.30;85.00
33271;DHT22;53180;51.344;6.152;2022-12-18T06:41:20;-4.30;85.00
33271;DHT22;53180;51.344;6.152;2022-12-18T06:43:49;-4.30;85.00
33271;DHT22;53180;51.344;6.152;2022-12-18T06:46:22;-4.30;85.00
33271;DHT22;53180;51.344;6.152;2022-12-18T06:48:50;-4.40;85.00
33271;DHT22;53180;51.344;6.152;2022-12-18T06:51:20;-4.30;85.00
33271;DHT22;53180;51.344;6.152;2022-12-18T06:53:50;-4.30;85.00
33271;DHT22;53180;51.344;6.152;2022-12-18T06:56:19;-4.30;84.90
33271;DHT22;53180;51.344;6.152;2022-12-18T06:58:48;-4.30;85.00
33271;DHT22;53180;51.344;6.152;2022-12-18T07:01:16;-4.30;84.90
33271;DHT22;53180;51.344;6.152;2022-12-18T07:03:44;-4.40;85.00
33271;DHT22;53180;51.344;6.152;2022-12-18T07:06:14;-4.40;85.00
33271;DHT22;53180;51.344;6.152;2022-12-18T07:08:43;-4.30;85.00
33271;DHT22;53180;51.344;6.152;2022-12-18T07:11:12;-4.40;85.00
33271;DHT22;53180;51.344;6.152;2022-12-18T07:13:42;-4.40;85.10
33271;DHT22;53180;51.344;6.152;2022-12-18T07:16:13;-4.40;85.10
33271;DHT22;53180;51.344;6.152;2022-12-18T07:18:50;-4.40;85.00
33271;DHT22;53180;51.344;6.152;2022-12-18T07:21:19;-4.40;84.90
33271;DHT22;53180;51.344;6.152;2022-12-18T07:23:48;-4.30;84.90
33271;DHT22;53180;51.344;6.152;2022-12-18T07:26:18;-4.30;84.80
33271;DHT22;53180;51.344;6.152;2022-12-18T07:28:48;-4.30;84.80
33271;DHT22;53180;51.344;6.152;2022-12-18T07:31:19;-4.30;84.70
33271;DHT22;53180;51.344;6.152;2022-12-18T07:33:48;-4.30;84.70
33271;DHT22;53180;51.344;6.152;2022-12-18T07:36:16;-4.30;84.70
33271;DHT22;53180;51.344;6.152;2022-12-18T07:38:47;-4.30;84.70
33271;DHT22;53180;51.344;6.152;2022-12-18T07:41:16;-4.30;84.70
33271;DHT22;53180;51.344;6.152;2022-12-18T07:43:45;-4.30;84.80
33271;DHT22;53180;51.344;6.152;2022-12-18T07:46:15;-4.30;84.80
33271;DHT22;53180;51.344;6.152;2022-12-18T07:48:45;-4.30;84.90
33271;DHT22;53180;51.344;6.152;2022-12-18T07:51:17;-4.30;84.80
33271;DHT22;53180;51.344;6.152;2022-12-18T07:53:45;-4.30;84.80
33271;DHT22;53180;51.344;6.152;2022-12-18T07:56:18;-4.30;84.80
33271;DHT22;53180;51.344;6.152;2022-12-18T07:58:57;-4.20;84.80
33271;DHT22;53180;51.344;6.152;2022-12-18T08:01:27;-4.30;84.70
33271;DHT22;53180;51.344;6.152;2022-12-18T08:03:56;-4.20;84.90
33271;DHT22;53180;51.344;6.152;2022-12-18T08:06:25;-4.20;84.70
33271;DHT22;53180;51.344;6.152;2022-12-18T08:08:55;-4.20;84.80
33271;DHT22;53180;51.344;6.152;2022-12-18T08:11:25;-4.20;84.70
33271;DHT22;53180;51.344;6.152;2022-12-18T08:13:54;-4.10;84.70
33271;DHT22;53180;51.344;6.152;2022-12-18T08:16:24;-4.10;84.70
33271;DHT22;53180;51.344;6.152;2022-12-18T08:18:54;-4.00;84.70
33271;DHT22;53180;51.344;6.152;2022-12-18T08:21:24;-3.90;84.60
33271;DHT22;53180;51.344;6.152;2022-12-18T08:23:54;-3.80;84.40
33271;DHT22;53180;51.344;6.152;2022-12-18T08:26:31;-3.80;84.20
33271;DHT22;53180;51.344;6.152;2022-12-18T08:28:59;-3.70;84.00
33271;DHT22;53180;51.344;6.152;2022-12-18T08:31:29;-3.70;84.00
33271;DHT22;53180;51.344;6.152;2022-12-18T08:33:59;-3.60;83.80
33271;DHT22;53180;51.344;6.152;2022-12-18T08:36:27;-3.50;83.80
33271;DHT22;53180;51.344;6.152;2022-12-18T08:38:56;-3.40;83.50
33271;DHT22;53180;51.344;6.152;2022-12-18T08:41:26;-3.40;83.30
33271;DHT22;53180;51.344;6.152;2022-12-18T08:43:54;-3.30;83.20
33271;DHT22;53180;51.344;6.152;2022-12-18T08:46:42;-3.30;82.80
33271;DHT22;53180;51.344;6.152;2022-12-18T08:49:12;-3.20;82.80
33271;DHT22;53180;51.344;6.152;2022-12-18T08:51:41;-3.10;82.70
33271;DHT22;53180;51.344;6.152;2022-12-18T08:54:11;-3.10;82.90
33271;DHT22;53180;51.344;6.152;2022-12-18T08:56:40;-3.00;82.80
33271;DHT22;53180;51.344;6.152;2022-12-18T08:59:08;-3.00;82.50
33271;DHT22;53180;51.344;6.152;2022-12-18T09:01:45;-3.00;82.10
33271;DHT22;53180;51.344;6.152;2022-12-18T09:04:15;-2.90;82.40
33271;DHT22;53180;51.344;6.152;2022-12-18T09:06:44;-3.00;82.40
33271;DHT22;53180;51.344;6.152;2022-12-18T09:09:12;-2.90;82.30
33271;DHT22;53180;51.344;6.152;2022-12-18T09:11:40;-2.80;82.20
33271;DHT22;53180;51.344;6.152;2022-12-18T09:14:10;-2.70;82.20
33271;DHT22;53180;51.344;6.152;2022-12-18T09:16:39;-2.70;82.10
33271;DHT22;53180;51.344;6.152;2022-12-18T09:19:07;-2.60;81.90
33271;DHT22;53180;51.344;6.152;2022-12-18T09:21:38;-2.60;81.80
33271;DHT22;53180;51.344;6.152;2022-12-18T09:24:14;-2.50;81.90
33271;DHT22;53180;51.344;6.152;2022-12-18T09:26:43;-2.40;81.70
33271;DHT22;53180;51.344;6.152;2022-12-18T09:29:13;-2.40;81.30
33271;DHT22;53180;51.344;6.152;2022-12-18T09:31:44;-2.40;81.20
33271;DHT22;53180;51.344;6.152;2022-12-18T09:34:13;-2.40;81.40
33271;DHT22;53180;51.344;6.152;2022-12-18T09:36:42;-2.30;81.30
33271;DHT22;53180;51.344;6.152;2022-12-18T09:39:11;-2.30;81.20
33271;DHT22;53180;51.344;6.152;2022-12-18T09:41:47;-2.20;81.00
33271;DHT22;53180;51.344;6.152;2022-12-18T09:44:23;-2.20;80.90
33271;DHT22;53180;51.344;6.152;2022-12-18T09:47:03;-2.20;80.70
33271;DHT22;53180;51.344;6.152;2022-12-18T09:49:37;-2.20;80.90
33271;DHT22;53180;51.344;6.152;2022-12-18T09:52:14;-2.10;81.00
33271;DHT22;53180;51.344;6.152;2022-12-18T09:54:49;-2.00;80.70
33271;DHT22;53180;51.344;6.152;2022-12-18T09:57:23;-2.00;80.80
33271;DHT22;53180;51.344;6.152;2022-12-18T09:59:55;-2.00;80.70
33271;DHT22;53180;51.344;6.152;2022-12-18T10:02:26;-2.00;80.70
33271;DHT22;53180;51.344;6.152;2022-12-18T10:05:06;-1.90;80.70
33271;DHT22;53180;51.344;6.152;2022-12-18T10:07:49;-1.90;80.80
33271;DHT22;53180;51.344;6.152;2022-12-18T10:10:27;-1.90;80.80
33271;DHT22;53180;51.344;6.152;2022-12-18T10:13:09;-1.80;80.40
33271;DHT22;53180;51.344;6.152;2022-12-18T10:15:51;-1.80;80.30
33271;DHT22;53180;51.344;6.152;2022-12-18T10:18:36;-1.80;80.20
33271;DHT22;53180;51.344;6.152;2022-12-18T10:21:19;-1.80;80.10
33271;DHT22;53180;51.344;6.152;2022-12-18T10:24:04;-1.70;80.20
33271;DHT22;53180;51.344;6.152;2022-12-18T10:26:41;-1.70;80.30
33271;DHT22;53180;51.344;6.152;2022-12-18T10:29:12;-1.60;79.70
33271;DHT22;53180;51.344;6.152;2022-12-18T10:31:41;-1.60;79.60
33271;DHT22;53180;51.344;6.152;2022-12-18T10:34:09;-1.60;79.60
33271;DHT22;53180;51.344;6.152;2022-12-18T10:36:40;-1.60;79.70
33271;DHT22;53180;51.344;6.152;2022-12-18T10:39:20;-1.60;79.50
33271;DHT22;53180;51.344;6.152;2022-12-18T10:41:50;-1.60;79.50
33271;DHT22;53180;51.344;6.152;2022-12-18T10:44:19;-1.50;79.50
33271;DHT22;53180;51.344;6.152;2022-12-18T10:46:50;-1.50;79.40
33271;DHT22;53180;51.344;6.152;2022-12-18T10:49:25;-1.50;79.40
33271;DHT22;53180;51.344;6.152;2022-12-18T10:52:05;-1.50;79.40
33271;DHT22;53180;51.344;6.152;2022-12-18T10:54:38;-1.40;79.40
33271;DHT22;53180;51.344;6.152;2022-12-18T10:57:17;-1.40;79.50
33271;DHT22;53180;51.344;6.152;2022-12-18T11:00:01;-1.40;78.90
33271;DHT22;53180;51.344;6.152;2022-12-18T11:02:48;-1.30;79.20
33271;DHT22;53180;51.344;6.152;2022-12-18T11:05:26;-1.30;79.20
33271;DHT22;53180;51.344;6.152;2022-12-18T11:07:56;-1.30;78.90
33271;DHT22;53180;51.344;6.152;2022-12-18T11:10:30;-1.30;79.10
33271;DHT22;53180;51.344;6.152;2022-12-18T11:13:15;-1.20;79.30
33271;DHT22;53180;51.344;6.152;2022-12-18T11:15:45;-1.20;78.80
33271;DHT22;53180;51.344;6.152;2022-12-18T11:18:17;-1.20;78.90
33271;DHT22;53180;51.344;6.152;2022-12-18T11:20:53;-1.20;78.90
33271;DHT22;53180;51.344;6.152;2022-12-18T11:23:25;-1.20;78.90
33271;DHT22;53180;51.344;6.152;2022-12-18T11:25:58;-1.10;78.90
33271;DHT22;53180;51.344;6.152;2022-12-18T11:28:35;-1.10;78.50
33271;DHT22;53180;51.344;6.152;2022-12-18T11:31:22;-1.10;78.40
33271;DHT22;53180;51.344;6.152;2022-12-18T11:33:58;-1.10;78.80
33271;DHT22;53180;51.344;6.152;2022-12-18T11:36:48;-1.10;78.60
33271;DHT22;53180;51.344;6.152;2022-12-18T11:39:19;-1.10;78.40
33271;DHT22;53180;51.344;6.152;2022-12-18T11:41:57;-1.10;78.60
33271;DHT22;53180;51.344;6.152;2022-12-18T11:44:43;-1.00;78.50
33271;DHT22;53180;51.344;6.152;2022-12-18T11:47:23;-1.00;78.30
33271;DHT22;53180;51.344;6.152;2022-12-18T11:49:55;-1.00;78.40
33271;DHT22;53180;51.344;6.152;2022-12-18T11:52:30;-1.00;78.40
33271;DHT22;53180;51.344;6.152;2022-12-18T11:55:09;-1.00;78.10
33271;DHT22;53180;51.344;6.152;2022-12-18T11:57:46;-0.90;78.20
33271;DHT22;53180;51.344;6.152;2022-12-18T12:00:21;-0.90;78.00
33271;DHT22;53180;51.344;6.152;2022-12-18T12:03:18;-0.90;78.10
33271;DHT22;53180;51.344;6.152;2022-12-18T12:05:59;-0.80;78.20
33271;DHT22;53180;51.344;6.152;2022-12-18T12:08:41;-0.80;78.20
33271;DHT22;53180;51.344;6.152;2022-12-18T12:11:22;-0.80;78.20
33271;DHT22;53180;51.344;6.152;2022-12-18T12:14:05;-0.80;77.70
33271;DHT22;53180;51.344;6.152;2022-12-18T12:16:47;-0.80;78.10
33271;DHT22;53180;51.344;6.152;2022-12-18T12:19:31;-0.70;77.90
33271;DHT22;53180;51.344;6.152;2022-12-18T12:22:10;-0.80;77.90
33271;DHT22;53180;51.344;6.152;2022-12-18T12:24:56;-0.80;77.90
33271;DHT22;53180;51.344;6.152;2022-12-18T12:27:38;-0.70;77.70
33271;DHT22;53180;51.344;6.152;2022-12-18T12:30:15;-0.70;77.80
33271;DHT22;53180;51.344;6.152;2022-12-18T12:33:00;-0.70;78.00
33271;DHT22;53180;51.344;6.152;2022-12-18T12:35:45;-0.70;78.10
33271;DHT22;53180;51.344;6.152;2022-12-18T12:38:21;-0.60;78.00
33271;DHT22;53180;51.344;6.152;2022-12-18T12:40:56;-0.60;78.00
33271;DHT22;53180;51.344;6.152;2022-12-18T12:43:35;-0.60;78.00
33271;DHT22;53180;51.344;6.152;2022-12-18T12:46:18;-0.50;77.70
33271;DHT22;53180;51.344;6.152;2022-12-18T12:48:56;-0.60;77.60
33271;DHT22;53180;51.344;6.152;2022-12-18T12:51:29;-0.50;77.80
33271;DHT22;53180;51.344;6.152;2022-12-18T12:54:02;-0.50;77.80
33271;DHT22;53180;51.344;6.152;2022-12-18T12:56:41;-0.50;77.30
33271;DHT22;53180;51.344;6.152;2022-12-18T12:59:17;-0.50;77.50
33271;DHT22;53180;51.344;6.152;2022-12-18T13:04:33;-0.40;77.10
33271;DHT22;53180;51.344;6.152;2022-12-18T13:07:12;-0.50;77.30
33271;DHT22;53180;51.344;6.152;2022-12-18T13:10:14;-0.50;77.00
33271;DHT22;53180;51.344;6.152;2022-12-18T13:12:54;-0.40;77.20
33271;DHT22;53180;51.344;6.152;2022-12-18T13:15:29;-0.40;77.10
33271;DHT22;53180;51.344;6.152;2022-12-18T13:18:14;-0.40;76.90
33271;DHT22;53180;51.344;6.152;2022-12-18T13:20:47;-0.40;76.90
33271;DHT22;53180;51.344;6.152;2022-12-18T13:23:33;-0.40;76.50
33271;DHT22;53180;51.344;6.152;2022-12-18T13:26:30;-0.40;76.50
33271;DHT22;53180;51.344;6.152;2022-12-18T13:29:01;-0.40;76.40
33271;DHT22;53180;51.344;6.152;2022-12-18T13:34:48;-0.40;76.50
33271;DHT22;53180;51.344;6.152;2022-12-18T13:37:41;-0.30;76.80
33271;DHT22;53180;51.344;6.152;2022-12-18T13:43:33;-0.30;76.70
33271;DHT22;53180;51.344;6.152;2022-12-18T13:46:19;-0.30;76.40
33271;DHT22;53180;51.344;6.152;2022-12-18T13:48:52;-0.30;76.30
33271;DHT22;53180;51.344;6.152;2022-12-18T13:51:25;-0.30;76.50
33271;DHT22;53180;51.344;6.152;2022-12-18T13:53:58;-0.30;76.20
33271;DHT22;53180;51.344;6.152;2022-12-18T13:56:28;-0.30;76.00
33271;DHT22;53180;51.344;6.152;2022-12-18T13:59:19;-0.30;76.00
33271;DHT22;53180;51.344;6.152;2022-12-18T14:01:53;-0.30;75.90
33271;DHT22;53180;51.344;6.152;2022-12-18T14:04:25;-0.30;75.70
33271;DHT22;53180;51.344;6.152;2022-12-18T14:06:58;-0.30;75.90
33271;DHT22;53180;51.344;6.152;2022-12-18T14:09:35;-0.30;75.80
33271;DHT22;53180;51.344;6.152;2022-12-18T14:12:06;-0.20;75.80
33271;DHT22;53180;51.344;6.152;2022-12-18T14:15:00;-0.30;75.80
33271;DHT22;53180;51.344;6.152;2022-12-18T14:17:30;-0.30;76.00
33271;DHT22;53180;51.344;6.152;2022-12-18T14:20:00;-0.30;76.00
33271;DHT22;53180;51.344;6.152;2022-12-18T14:22:29;-0.30;76.20
33271;DHT22;53180;51.344;6.152;2022-12-18T14:25:17;-0.30;76.20
33271;DHT22;53180;51.344;6.152;2022-12-18T14:27:50;-0.30;76.40
33271;DHT22;53180;51.344;6.152;2022-12-18T14:30:25;-0.30;76.30
33271;DHT22;53180;51.344;6.152;2022-12-18T14:33:02;-0.30;76.00
33271;DHT22;53180;51.344;6.152;2022-12-18T14:35:31;-0.30;76.10
33271;DHT22;53180;51.344;6.152;2022-12-18T14:38:11;-0.30;75.90
33271;DHT22;53180;51.344;6.152;2022-12-18T14:40:52;-0.30;75.70
33271;DHT22;53180;51.344;6.152;2022-12-18T14:43:21;-0.30;76.30
33271;DHT22;53180;51.344;6.152;2022-12-18T14:45:50;-0.40;75.90
33271;DHT22;53180;51.344;6.152;2022-12-18T14:48:20;-0.40;75.60
33271;DHT22;53180;51.344;6.152;2022-12-18T14:50:58;-0.40;75.60
33271;DHT22;53180;51.344;6.152;2022-12-18T14:53:37;-0.40;75.80
33271;DHT22;53180;51.344;6.152;2022-12-18T14:56:18;-0.40;75.80
33271;DHT22;53180;51.344;6.152;2022-12-18T14:58:49;-0.40;75.80
33271;DHT22;53180;51.344;6.152;2022-12-18T15:01:21;-0.50;75.70
33271;DHT22;53180;51.344;6.152;2022-12-18T15:03:53;-0.50;75.80
33271;DHT22;53180;51.344;6.152;2022-12-18T15:06:28;-0.50;76.00
33271;DHT22;53180;51.344;6.152;2022-12-18T15:09:02;-0.50;76.00
33271;DHT22;53180;51.344;6.152;2022-12-18T15:11:45;-0.50;76.10
33271;DHT22;53180;51.344;6.152;2022-12-18T15:14:39;-0.50;76.40
33271;DHT22;53180;51.344;6.152;2022-12-18T15:17:17;-0.50;76.00
33271;DHT22;53180;51.344;6.152;2022-12-18T15:19:47;-0.50;76.30
33271;DHT22;53180;51.344;6.152;2022-12-18T15:22:20;-0.60;76.30
33271;DHT22;53180;51.344;6.152;2022-12-18T15:24:50;-0.60;76.40
33271;DHT22;53180;51.344;6.152;2022-12-18T15:27:26;-0.60;76.60
33271;DHT22;53180;51.344;6.152;2022-12-18T15:30:20;-0.60;76.60
33271;DHT22;53180;51.344;6.152;2022-12-18T15:32:51;-0.60;76.80
33271;DHT22;53180;51.344;6.152;2022-12-18T15:35:22;-0.60;77.00
33271;DHT22;53180;51.344;6.152;2022-12-18T15:37:52;-0.60;76.90
33271;DHT22;53180;51.344;6.152;2022-12-18T15:40:21;-0.60;77.10
33271;DHT22;53180;51.344;6.152;2022-12-18T15:42:54;-0.60;77.10
33271;DHT22;53180;51.344;6.152;2022-12-18T15:45:40;-0.60;77.10
33271;DHT22;53180;51.344;6.152;2022-12-18T15:48:19;-0.60;77.00
33271;DHT22;53180;51.344;6.152;2022-12-18T15:50:49;-0.60;77.30
33271;DHT22;53180;51.344;6.152;2022-12-18T15:53:18;-0.60;77.50
33271;DHT22;53180;51.344;6.152;2022-12-18T15:55:47;-0.60;77.50
33271;DHT22;53180;51.344;6.152;2022-12-18T15:58:35;-0.60;77.40
33271;DHT22;53180;51.344;6.152;2022-12-18T16:01:03;-0.50;77.50
33271;DHT22;53180;51.344;6.152;2022-12-18T16:03:32;-0.50;77.50
33271;DHT22;53180;51.344;6.152;2022-12-18T16:06:01;-0.50;77.60
33271;DHT22;53180;51.344;6.152;2022-12-18T16:08:30;-0.50;77.60
33271;DHT22;53180;51.344;6.152;2022-12-18T16:10:59;-0.50;77.70
33271;DHT22;53180;51.344;6.152;2022-12-18T16:13:27;-0.50;77.70
33271;DHT22;53180;51.344;6.152;2022-12-18T16:15:57;-0.50;77.70